Time;durP1;ratioP1;P1;durP2;ratioP2;P2;SDS_P1;SDS_P2;PMS_P1;PMS_P2;Temp;Humidity;BMP_temperature;BMP_pressure;BME280_temperature;BME280_humidity;BME280_pressure;Samples;Min_cycle;Max_cycle;Signal;HPM_P1;HPM_P2
2021/09/25 00:00:46;;;;;;;9.40;5.88;;;13.20;99.90;;;;;;5022234;28;20056;-85
2021/09/25 00:03:13;;;;;;;6.25;5.65;;;13.20;99.90;;;;;;5007856;28;20053;-85
2021/09/25 00:05:42;;;;;;;8.65;5.30;;;13.30;99.90;;;;;;4998702;28;20153;-84
2021/09/25 00:08:09;;;;;;;6.65;5.50;;;13.30;99.90;;;;;;4998266;28;20084;-84
2021/09/25 00:10:37;;;;;;;5.90;5.07;;;13.30;99.90;;;;;;5014954;28;20495;-84
2021/09/25 00:13:04;;;;;;;7.15;6.00;;;13.40;99.90;;;;;;4997842;28;20060;-84
2021/09/25 00:15:32;;;;;;;6.53;5.10;;;13.40;99.90;;;;;;4998035;28;20140;-85
2021/09/25 00:18:00;;;;;;;18.23;5.88;;;13.40;99.90;;;;;;4997993;28;20421;-84
2021/09/25 00:20:27;;;;;;;7.10;5.03;;;13.40;99.90;;;;;;4997938;28;20050;-84
2021/09/25 00:22:55;;;;;;;5.93;5.10;;;13.40;99.90;;;;;;4997754;28;20116;-84
2021/09/25 00:25:22;;;;;;;8.50;5.00;;;13.40;99.90;;;;;;4997698;28;20060;-84
2021/09/25 00:27:49;;;;;;;5.60;5.00;;;13.40;99.90;;;;;;4997828;28;20050;-84
2021/09/25 00:30:16;;;;;;;6.25;4.68;;;13.50;99.90;;;;;;5015226;28;20050;-84
2021/09/25 00:32:43;;;;;;;4.68;4.28;;;13.50;99.90;;;;;;4997779;28;20053;-85
2021/09/25 00:35:10;;;;;;;4.95;4.57;;;13.50;99.90;;;;;;5014909;28;20125;-85
2021/09/25 00:37:38;;;;;;;4.60;4.20;;;13.50;99.90;;;;;;4997499;28;20050;-85
2021/09/25 00:40:07;;;;;;;5.28;4.47;;;13.60;99.90;;;;;;4997764;28;20046;-84
2021/09/25 00:42:34;;;;;;;5.88;4.43;;;13.60;99.90;;;;;;4997715;28;20045;-84
2021/09/25 00:45:01;;;;;;;5.15;4.75;;;13.60;99.90;;;;;;4997396;28;20050;-84
2021/09/25 00:47:27;;;;;;;7.00;4.70;;;13.60;99.90;;;;;;5014924;28;20081;-85
2021/09/25 00:49:54;;;;;;;5.75;4.57;;;13.60;99.90;;;;;;5014388;28;20491;-84
2021/09/25 00:52:21;;;;;;;5.88;3.95;;;13.60;99.90;;;;;;5014281;28;20089;-84
2021/09/25 00:54:48;;;;;;;5.80;3.80;;;13.70;99.90;;;;;;5014701;28;20041;-83
2021/09/25 00:57:16;;;;;;;5.63;3.80;;;13.70;99.90;;;;;;4997173;28;20060;-85
2021/09/25 00:59:43;;;;;;;5.07;4.55;;;13.70;99.90;;;;;;5014562;28;20050;-84
2021/09/25 01:02:11;;;;;;;4.88;3.92;;;13.70;99.90;;;;;;5014447;28;20497;-84
2021/09/25 01:04:38;;;;;;;4.50;4.00;;;13.70;99.90;;;;;;5014226;28;20069;-85
2021/09/25 01:07:05;;;;;;;4.75;3.90;;;13.70;99.90;;;;;;4997112;28;20073;-85
2021/09/25 01:09:32;;;;;;;6.32;3.70;;;13.70;99.90;;;;;;4997178;28;20109;-85
2021/09/25 01:11:59;;;;;;;4.47;4.00;;;13.70;99.90;;;;;;4996872;28;20124;-84
2021/09/25 01:14:30;;;;;;;6.07;3.78;;;13.70;99.90;;;;;;5014354;28;20129;-84
2021/09/25 01:17:10;;;;;;;4.25;3.67;;;13.70;99.90;;;;;;4996949;28;20483;-85
2021/09/25 01:19:39;;;;;;;5.85;4.22;;;13.70;99.90;;;;;;5000774;28;20454;-85
2021/09/25 01:22:06;;;;;;;5.57;4.20;;;13.70;99.90;;;;;;5006838;28;20443;-84
2021/09/25 01:24:33;;;;;;;4.93;4.45;;;13.80;99.90;;;;;;4997555;28;20056;-84
2021/09/25 01:27:00;;;;;;;4.07;3.78;;;13.70;99.90;;;;;;4996524;28;20133;-85
2021/09/25 01:29:28;;;;;;;4.30;3.90;;;13.70;99.90;;;;;;4996809;28;20050;-85
2021/09/25 01:31:55;;;;;;;4.45;4.00;;;13.80;99.90;;;;;;4996323;28;20054;-84
2021/09/25 01:34:22;;;;;;;4.18;3.88;;;13.80;99.90;;;;;;4996580;28;20570;-85
2021/09/25 01:36:50;;;;;;;5.57;4.00;;;13.80;99.90;;;;;;4996398;28;20578;-84
2021/09/25 01:39:17;;;;;;;6.38;4.53;;;13.80;99.90;;;;;;5013887;28;20053;-84
2021/09/25 01:41:44;;;;;;;5.38;4.22;;;13.80;99.90;;;;;;4996565;28;20049;-85
2021/09/25 01:44:11;;;;;;;5.32;3.97;;;13.80;99.90;;;;;;4996715;28;20053;-84
2021/09/25 01:46:38;;;;;;;4.30;3.88;;;13.80;99.90;;;;;;4996133;28;20056;-85
2021/09/25 01:49:05;;;;;;;4.35;4.03;;;13.80;99.90;;;;;;4996369;28;20069;-85
2021/09/25 01:51:32;;;;;;;3.88;3.40;;;13.90;99.90;;;;;;4996186;28;20052;-85
2021/09/25 01:53:59;;;;;;;5.57;3.88;;;13.90;99.90;;;;;;4996404;28;20395;-85
2021/09/25 01:56:26;;;;;;;4.30;3.97;;;14.00;99.90;;;;;;4996368;28;20041;-84
2021/09/25 01:58:52;;;;;;;5.18;3.45;;;14.00;99.90;;;;;;4996322;28;20069;-84
2021/09/25 02:01:19;;;;;;;5.07;3.53;;;14.00;99.90;;;;;;4995799;28;20498;-85
2021/09/25 02:03:46;;;;;;;6.85;3.65;;;13.90;99.90;;;;;;4996070;28;20054;-84
2021/09/25 02:06:13;;;;;;;4.03;3.15;;;13.90;99.90;;;;;;4995999;28;20077;-84
2021/09/25 02:08:42;;;;;;;5.40;3.47;;;13.90;99.90;;;;;;5013438;28;20046;-84
2021/09/25 02:11:09;;;;;;;4.78;3.63;;;13.90;99.90;;;;;;4995488;28;20083;-85
2021/09/25 02:13:35;;;;;;;6.95;3.60;;;13.80;99.90;;;;;;5012974;28;20058;-85
2021/09/25 02:16:02;;;;;;;3.97;3.58;;;13.90;99.90;;;;;;4995875;28;20133;-84
2021/09/25 02:18:29;;;;;;;4.90;3.92;;;13.90;99.90;;;;;;4996008;28;20402;-84
2021/09/25 02:20:56;;;;;;;4.47;4.00;;;13.80;99.90;;;;;;4995785;28;20495;-84
2021/09/25 02:23:23;;;;;;;4.22;3.67;;;13.80;99.90;;;;;;5012903;28;20050;-84
2021/09/25 02:25:50;;;;;;;8.38;3.83;;;13.80;99.90;;;;;;4995448;28;20050;-84
2021/09/25 02:28:17;;;;;;;4.68;4.07;;;13.80;99.90;;;;;;4996040;28;20045;-85
2021/09/25 02:30:45;;;;;;;7.93;4.28;;;13.80;99.90;;;;;;4995795;28;20058;-85
2021/09/25 02:33:12;;;;;;;3.97;3.67;;;13.90;99.90;;;;;;5013071;28;20084;-84
2021/09/25 02:35:41;;;;;;;3.90;3.60;;;13.90;99.90;;;;;;4995746;28;20501;-84
2021/09/25 02:38:08;;;;;;;5.13;3.63;;;13.80;99.90;;;;;;4997291;28;20081;-84
2021/09/25 02:40:35;;;;;;;3.83;3.53;;;13.80;99.90;;;;;;5006170;28;20081;-85
2021/09/25 02:43:02;;;;;;;4.30;3.50;;;13.80;99.90;;;;;;4996373;28;20149;-84
2021/09/25 02:45:29;;;;;;;4.78;3.60;;;13.80;99.90;;;;;;4995679;28;20128;-85
2021/09/25 02:47:56;;;;;;;5.03;3.60;;;13.80;99.90;;;;;;5012952;28;20050;-84
2021/09/25 02:50:23;;;;;;;4.45;4.03;;;13.80;99.90;;;;;;4995547;28;20132;-84
2021/09/25 02:52:50;;;;;;;9.13;4.07;;;13.70;99.90;;;;;;4995444;28;20060;-84
2021/09/25 02:55:17;;;;;;;9.48;4.00;;;13.80;99.90;;;;;;4995430;28;20108;-84
2021/09/25 02:57:44;;;;;;;4.10;3.65;;;13.80;99.90;;;;;;4995542;28;20077;-84
2021/09/25 03:00:15;;;;;;;4.30;3.90;;;13.80;99.90;;;;;;5012986;28;20509;-84
2021/09/25 03:02:41;;;;;;;6.10;3.85;;;13.70;99.90;;;;;;4995502;28;20078;-84
2021/09/25 03:05:09;;;;;;;4.85;3.95;;;13.70;99.90;;;;;;4995300;28;20057;-85
2021/09/25 03:07:37;;;;;;;5.88;4.15;;;13.70;99.90;;;;;;4995212;28;20054;-85
2021/09/25 03:10:05;;;;;;;4.25;3.65;;;13.60;99.90;;;;;;5012720;28;20057;-84
2021/09/25 03:12:32;;;;;;;4.25;3.95;;;13.60;99.90;;;;;;4995387;28;20517;-84
2021/09/25 03:15:00;;;;;;;4.40;4.00;;;13.60;99.90;;;;;;4997809;28;20046;-85
2021/09/25 03:17:27;;;;;;;4.68;4.28;;;13.50;99.90;;;;;;5016395;28;20056;-84
2021/09/25 03:19:54;;;;;;;4.85;4.00;;;13.50;99.90;;;;;;5016291;28;20048;-84
2021/09/25 03:22:20;;;;;;;5.75;3.80;;;13.30;99.90;;;;;;5016249;28;20502;-84
2021/09/25 03:24:47;;;;;;;4.07;3.67;;;13.30;99.90;;;;;;4998833;28;20042;-84
2021/09/25 03:27:14;;;;;;;5.70;3.97;;;13.20;99.90;;;;;;4998913;28;20497;-84
2021/09/25 03:29:41;;;;;;;4.22;3.92;;;13.00;99.90;;;;;;4998957;28;20129;-84
2021/09/25 03:32:08;;;;;;;5.13;4.20;;;12.90;99.90;;;;;;4998913;28;20058;-84
2021/09/25 03:34:35;;;;;;;4.97;3.80;;;12.70;99.90;;;;;;4998536;28;20054;-84
2021/09/25 03:37:02;;;;;;;6.93;4.53;;;12.60;99.90;;;;;;5015644;28;20046;-84
2021/09/25 03:39:29;;;;;;;5.60;4.70;;;12.50;99.90;;;;;;4998770;28;20544;-84
2021/09/25 03:41:56;;;;;;;8.60;4.82;;;12.50;99.90;;;;;;4998670;28;20088;-84
2021/09/25 03:44:23;;;;;;;10.80;5.82;;;12.40;99.90;;;;;;5015865;28;20141;-85
2021/09/25 03:46:50;;;;;;;5.30;4.70;;;12.40;99.90;;;;;;5015987;28;20453;-84
2021/09/25 03:49:16;;;;;;;6.93;5.03;;;12.40;99.90;;;;;;5015671;28;20045;-85
2021/09/25 03:51:43;;;;;;;6.88;5.05;;;12.30;99.90;;;;;;5015601;28;20100;-85
2021/09/25 03:54:10;;;;;;;9.25;5.20;;;12.30;99.90;;;;;;5015756;28;20096;-85
2021/09/25 03:56:36;;;;;;;6.00;4.60;;;12.20;99.90;;;;;;5015698;28;20050;-84
2021/09/25 03:59:03;;;;;;;5.90;5.13;;;12.20;99.90;;;;;;5023163;28;20056;-84
2021/09/25 04:01:30;;;;;;;5.75;4.53;;;12.10;99.90;;;;;;5003542;28;20149;-84
2021/09/25 04:03:57;;;;;;;5.72;4.82;;;12.10;99.90;;;;;;4998463;28;20056;-84
2021/09/25 04:06:26;;;;;;;5.22;4.53;;;12.10;99.90;;;;;;4998078;28;20042;-84
2021/09/25 04:08:53;;;;;;;10.93;4.85;;;12.00;99.90;;;;;;5015315;28;20538;-85
2021/09/25 04:11:21;;;;;;;4.82;4.25;;;12.00;99.90;;;;;;5015183;28;20053;-84
2021/09/25 04:13:48;;;;;;;5.78;4.65;;;11.90;99.90;;;;;;5015192;28;20116;-84
2021/09/25 04:16:15;;;;;;;4.85;4.43;;;11.80;99.90;;;;;;4998042;28;20096;-85
2021/09/25 04:18:42;;;;;;;8.05;4.18;;;11.80;99.90;;;;;;4997752;28;20050;-83
2021/09/25 04:21:10;;;;;;;8.70;5.25;;;11.80;99.90;;;;;;4997993;28;20042;-84
2021/09/25 04:23:37;;;;;;;4.95;4.55;;;11.70;99.90;;;;;;5015099;28;20056;-84
2021/09/25 04:26:03;;;;;;;6.80;4.72;;;11.70;99.90;;;;;;4997736;28;20057;-85
2021/09/25 04:28:30;;;;;;;7.50;4.88;;;11.70;99.90;;;;;;4998194;28;20390;-84
2021/09/25 04:30:57;;;;;;;6.15;4.80;;;11.60;99.90;;;;;;4997615;28;20417;-85
2021/09/25 04:33:24;;;;;;;13.52;5.05;;;11.60;99.90;;;;;;5014799;28;20413;-85
2021/09/25 04:35:50;;;;;;;7.90;5.18;;;11.50;99.90;;;;;;4997437;28;20096;-84
2021/09/25 04:38:18;;;;;;;4.30;4.00;;;11.50;99.90;;;;;;4997890;28;20050;-84
2021/09/25 04:40:46;;;;;;;5.03;4.55;;;11.40;99.90;;;;;;4994324;28;20137;-85
2021/09/25 04:43:17;;;;;;;5.45;4.60;;;11.40;99.90;;;;;;5011016;28;20069;-85
2021/09/25 04:45:48;;;;;;;6.80;4.90;;;11.40;99.90;;;;;;4999223;28;20111;-85
2021/09/25 04:48:15;;;;;;;10.55;5.35;;;11.40;99.90;;;;;;5014917;28;20104;-85
2021/09/25 04:50:42;;;;;;;8.05;5.85;;;11.30;99.90;;;;;;5014665;28;20057;-85
2021/09/25 04:53:12;;;;;;;7.53;5.60;;;11.20;99.90;;;;;;4997429;28;20050;-85
2021/09/25 04:55:39;;;;;;;7.07;5.70;;;11.10;99.90;;;;;;5014866;28;20045;-85
2021/09/25 04:58:06;;;;;;;6.18;4.90;;;11.00;99.90;;;;;;5014765;28;20483;-85
2021/09/25 05:00:33;;;;;;;7.70;5.18;;;11.00;99.90;;;;;;4997264;28;20309;-85
2021/09/25 05:03:00;;;;;;;7.22;5.18;;;11.00;99.90;;;;;;4997352;28;20058;-85
2021/09/25 05:05:29;;;;;;;10.20;4.93;;;11.10;99.90;;;;;;4997432;28;20046;-85
2021/09/25 05:07:55;;;;;;;7.95;4.93;;;11.00;99.90;;;;;;4996971;28;20487;-84
2021/09/25 05:10:22;;;;;;;8.80;4.63;;;10.90;99.90;;;;;;5014175;28;20056;-84
2021/09/25 05:12:49;;;;;;;4.97;4.57;;;10.80;99.90;;;;;;4997110;28;20050;-84
2021/09/25 05:15:16;;;;;;;8.55;5.07;;;10.80;99.90;;;;;;4997120;28;20528;-85
2021/09/25 05:17:43;;;;;;;12.13;4.60;;;10.80;99.90;;;;;;5002245;28;20060;-85
2021/09/25 05:20:11;;;;;;;13.20;5.60;;;10.80;99.90;;;;;;5006057;28;20137;-85
2021/09/25 05:22:37;;;;;;;4.78;4.30;;;10.80;99.90;;;;;;4997557;28;20056;-85
2021/09/25 05:25:06;;;;;;;5.18;4.60;;;10.80;99.90;;;;;;4996858;28;20056;-85
2021/09/25 05:27:32;;;;;;;5.53;4.65;;;10.80;99.90;;;;;;4997096;28;20149;-85
2021/09/25 05:30:00;;;;;;;5.90;5.32;;;10.80;99.90;;;;;;5014755;28;20128;-85
2021/09/25 05:32:27;;;;;;;7.78;5.65;;;10.80;99.90;;;;;;4996742;28;20056;-85
2021/09/25 05:34:54;;;;;;;11.15;4.82;;;10.80;99.90;;;;;;4996763;28;20046;-85
2021/09/25 05:37:21;;;;;;;9.88;5.80;;;10.80;99.90;;;;;;4996263;28;20049;-85
2021/09/25 05:39:53;;;;;;;6.63;5.70;;;10.80;99.90;;;;;;4996686;28;20132;-85
2021/09/25 05:42:25;;;;;;;9.05;6.47;;;10.80;99.90;;;;;;4996719;28;20483;-85
2021/09/25 05:44:54;;;;;;;9.70;7.38;;;10.80;99.90;;;;;;5013796;28;20045;-85
2021/09/25 05:47:21;;;;;;;8.73;6.32;;;10.80;99.90;;;;;;4996615;28;20185;-85
2021/09/25 05:49:49;;;;;;;7.93;7.18;;;10.80;99.90;;;;;;4996739;28;20498;-85
2021/09/25 05:52:16;;;;;;;12.48;6.40;;;10.80;99.90;;;;;;4996430;28;20117;-85
2021/09/25 05:54:44;;;;;;;6.78;6.13;;;10.80;99.90;;;;;;4996559;28;20128;-85
2021/09/25 05:57:11;;;;;;;10.20;6.72;;;10.80;99.90;;;;;;5013501;28;20125;-85
2021/09/25 05:59:38;;;;;;;11.38;7.63;;;10.90;99.90;;;;;;5006753;28;20069;-85
2021/09/25 06:02:05;;;;;;;9.93;7.82;;;10.90;99.90;;;;;;5004853;28;20491;-85
2021/09/25 06:04:33;;;;;;;11.65;8.35;;;10.90;99.90;;;;;;5005842;28;20520;-85
2021/09/25 06:07:00;;;;;;;10.65;7.60;;;10.90;99.90;;;;;;5014882;28;20562;-85
2021/09/25 06:09:27;;;;;;;14.82;7.20;;;11.00;99.90;;;;;;5033033;28;20045;-84
2021/09/25 06:11:55;;;;;;;8.77;6.00;;;10.90;99.90;;;;;;5032856;28;20061;-85
2021/09/25 06:14:22;;;;;;;5.45;4.97;;;10.90;99.90;;;;;;5046854;28;20049;-85
2021/09/25 06:16:49;;;;;;;5.60;5.13;;;10.90;99.90;;;;;;5005938;28;20133;-85
2021/09/25 06:19:16;;;;;;;6.32;5.05;;;10.90;99.90;;;;;;5003908;28;20045;-84
2021/09/25 06:21:42;;;;;;;8.00;5.20;;;11.00;99.90;;;;;;5006657;28;20068;-85
2021/09/25 06:24:10;;;;;;;7.95;5.53;;;11.00;99.90;;;;;;5004919;28;20056;-85
2021/09/25 06:26:38;;;;;;;9.07;6.00;;;11.00;99.90;;;;;;5021324;28;20152;-85
2021/09/25 06:29:07;;;;;;;12.77;5.47;;;11.00;99.90;;;;;;5003935;28;20046;-86
2021/09/25 06:31:34;;;;;;;24.27;6.82;;;11.10;99.90;;;;;;5023210;28;20053;-85
2021/09/25 06:34:01;;;;;;;14.20;7.00;;;11.10;99.90;;;;;;5021072;28;20042;-85
2021/09/25 06:36:28;;;;;;;19.02;7.50;;;11.10;99.90;;;;;;5015803;28;20050;-85
2021/09/25 06:38:55;;;;;;;10.35;6.45;;;11.10;99.90;;;;;;5047660;28;20053;-85
2021/09/25 06:41:23;;;;;;;13.40;8.75;;;11.20;99.90;;;;;;5017691;28;20054;-84
2021/09/25 06:43:50;;;;;;;17.15;8.25;;;11.40;99.90;;;;;;5015367;28;20573;-85
2021/09/25 06:46:17;;;;;;;9.70;7.20;;;11.60;99.90;;;;;;5032400;28;20052;-85
2021/09/25 06:48:44;;;;;;;15.45;7.90;;;11.90;99.90;;;;;;5033181;28;20512;-85
2021/09/25 06:51:11;;;;;;;12.18;5.63;;;12.20;99.90;;;;;;5019145;28;20049;-84
2021/09/25 06:53:38;;;;;;;14.50;4.82;;;12.40;99.90;;;;;;5036572;28;20334;-85
2021/09/25 06:56:04;;;;;;;15.30;5.30;;;12.70;99.90;;;;;;5036555;28;20045;-85
2021/09/25 06:58:31;;;;;;;11.63;4.63;;;13.00;99.90;;;;;;5019389;28;20049;-84
2021/09/25 07:00:58;;;;;;;13.05;4.95;;;13.30;99.90;;;;;;5019000;28;20041;-84
2021/09/25 07:03:26;;;;;;;16.33;4.60;;;13.60;99.90;;;;;;5019018;28;20411;-85
2021/09/25 07:05:53;;;;;;;13.07;4.63;;;13.80;99.90;;;;;;5018746;28;20489;-84
2021/09/25 07:08:20;;;;;;;6.20;3.97;;;14.00;99.90;;;;;;5036116;28;20504;-84
2021/09/25 07:10:48;;;;;;;9.73;4.35;;;14.20;99.90;;;;;;5018690;28;20096;-84
2021/09/25 07:13:15;;;;;;;11.85;3.60;;;14.30;99.90;;;;;;5036109;28;20053;-85
2021/09/25 07:15:42;;;;;;;13.55;3.80;;;14.50;99.90;;;;;;5018955;28;20498;-85
2021/09/25 07:18:09;;;;;;;10.93;3.53;;;14.60;99.90;;;;;;5036459;28;20056;-85
2021/09/25 07:20:37;;;;;;;13.05;3.70;;;14.70;99.90;;;;;;5018804;28;20049;-86
2021/09/25 07:23:04;;;;;;;7.72;3.08;;;14.80;99.90;;;;;;5018800;28;20144;-84
2021/09/25 07:25:31;;;;;;;10.18;3.08;;;15.00;99.90;;;;;;5035866;28;20057;-85
2021/09/25 07:27:58;;;;;;;10.15;3.53;;;15.10;99.90;;;;;;5036067;28;20048;-85
2021/09/25 07:30:26;;;;;;;7.95;3.05;;;15.50;99.90;;;;;;5018549;28;20045;-85
2021/09/25 07:32:53;;;;;;;10.45;3.00;;;16.20;99.90;;;;;;5019361;28;20046;-85
2021/09/25 07:35:21;;;;;;;8.48;3.15;;;16.80;99.90;;;;;;5018610;28;20088;-86
2021/09/25 07:37:48;;;;;;;8.05;3.10;;;17.40;99.90;;;;;;5036335;28;20145;-85
2021/09/25 07:40:15;;;;;;;10.70;2.20;;;17.70;99.90;;;;;;5035943;28;20053;-85
2021/09/25 07:42:42;;;;;;;8.80;2.65;;;18.40;99.90;;;;;;5017874;28;20049;-85
2021/09/25 07:45:11;;;;;;;9.98;2.78;;;19.20;99.90;;;;;;5017869;28;20067;-86
2021/09/25 07:47:38;;;;;;;6.38;3.42;;;20.00;99.90;;;;;;5018390;28;20485;-86
2021/09/25 07:50:06;;;;;;;6.82;2.15;;;20.70;99.90;;;;;;5018496;28;20493;-86
2021/09/25 07:52:35;;;;;;;4.63;2.17;;;22.50;99.90;;;;;;5018604;28;20132;-84
2021/09/25 07:55:02;;;;;;;11.57;2.70;;;23.50;99.90;;;;;;5018764;28;20054;-84
2021/09/25 07:57:29;;;;;;;6.65;2.03;;;24.30;99.90;;;;;;5036737;28;20149;-84
2021/09/25 07:59:56;;;;;;;8.48;2.22;;;25.20;99.90;;;;;;5036062;28;20417;-84
2021/09/25 08:02:23;;;;;;;3.05;2.15;;;25.70;99.90;;;;;;5017949;28;20041;-84
2021/09/25 08:04:50;;;;;;;4.32;1.88;;;26.00;99.40;;;;;;5018241;28;20054;-83
2021/09/25 08:07:17;;;;;;;4.88;1.98;;;25.10;99.90;;;;;;5017964;28;20055;-84
2021/09/25 08:09:43;;;;;;;4.57;1.75;;;25.90;99.90;;;;;;5035501;28;20129;-84
2021/09/25 08:12:10;;;;;;;17.75;2.90;;;27.80;96.60;;;;;;5018085;28;20057;-84
2021/09/25 08:14:37;;;;;;;7.85;2.20;;;29.30;91.30;;;;;;5018230;28;20056;-85
2021/09/25 08:17:04;;;;;;;4.90;2.08;;;30.20;82.80;;;;;;5018616;28;20482;-85
2021/09/25 08:19:35;;;;;;;5.50;1.83;;;30.00;79.10;;;;;;5019679;28;20050;-84
2021/09/25 08:22:03;;;;;;;4.03;1.83;;;29.80;79.20;;;;;;5018103;28;20053;-84
2021/09/25 08:24:29;;;;;;;5.05;2.08;;;28.50;83.20;;;;;;5017657;28;20148;-84
2021/09/25 08:26:56;;;;;;;5.60;2.38;;;27.60;83.50;;;;;;5017878;28;20059;-84
2021/09/25 08:29:23;;;;;;;4.22;2.10;;;25.80;90.30;;;;;;5017614;28;20128;-83
2021/09/25 08:31:54;;;;;;;5.70;1.65;;;25.10;92.50;;;;;;5017438;28;20144;-84
2021/09/25 08:34:21;;;;;;;2.88;1.60;;;24.30;94.60;;;;;;5017474;28;20133;-85
2021/09/25 08:36:48;;;;;;;3.92;1.60;;;24.70;96.50;;;;;;5017534;28;20054;-84
2021/09/25 08:39:17;;;;;;;2.55;1.38;;;25.50;96.50;;;;;;5035098;28;20121;-83
2021/09/25 08:41:44;;;;;;;4.20;1.83;;;24.80;96.60;;;;;;5017505;28;20072;-83
2021/09/25 08:44:11;;;;;;;2.90;1.63;;;24.70;97.20;;;;;;5034774;28;20133;-83
2021/09/25 08:46:38;;;;;;;3.25;1.50;;;24.10;98.80;;;;;;5034733;28;20049;-84
2021/09/25 08:49:06;;;;;;;2.15;1.40;;;24.20;98.30;;;;;;5016905;28;20573;-83
2021/09/25 08:51:34;;;;;;;6.13;2.10;;;24.00;99.70;;;;;;5017211;28;20045;-84
2021/09/25 08:54:04;;;;;;;3.80;1.70;;;24.00;99.50;;;;;;5017223;28;20057;-84
2021/09/25 08:56:32;;;;;;;1.63;1.35;;;24.00;99.90;;;;;;5017073;28;20104;-82
2021/09/25 08:58:59;;;;;;;1.52;1.02;;;24.50;98.90;;;;;;5034498;28;20045;-83
2021/09/25 09:01:30;;;;;;;2.45;1.30;;;24.70;97.90;;;;;;5016792;28;20092;-83
2021/09/25 09:03:59;;;;;;;3.28;1.85;;;24.90;98.40;;;;;;5017318;28;20050;-83
2021/09/25 09:06:29;;;;;;;1.65;1.40;;;25.40;97.90;;;;;;5016945;28;20520;-84
2021/09/25 09:09:00;;;;;;;1.45;1.30;;;25.50;96.90;;;;;;5017036;28;20045;-83
2021/09/25 09:11:26;;;;;;;2.00;1.20;;;24.80;96.30;;;;;;5015953;28;20068;-84
2021/09/25 09:13:56;;;;;;;2.05;1.70;;;24.60;97.70;;;;;;5018889;28;20055;-84
2021/09/25 09:16:24;;;;;;;2.97;1.45;;;24.20;99.00;;;;;;5036270;28;20049;-84
2021/09/25 09:18:52;;;;;;;2.45;1.50;;;24.30;99.90;;;;;;5017802;28;20520;-84
2021/09/25 09:21:21;;;;;;;1.60;1.50;;;23.90;99.00;;;;;;5016443;28;20055;-84
2021/09/25 09:23:54;;;;;;;4.07;1.38;;;23.80;99.40;;;;;;5016418;28;20100;-84
2021/09/25 09:26:26;;;;;;;2.47;1.80;;;23.80;99.90;;;;;;5016615;28;20050;-84
2021/09/25 09:28:55;;;;;;;1.40;1.40;;;23.70;99.90;;;;;;5016409;28;20585;-84
2021/09/25 09:31:23;;;;;;;3.33;1.75;;;25.00;99.70;;;;;;5017802;28;20053;-85
2021/09/25 09:33:52;;;;;;;3.88;1.30;;;26.20;96.50;;;;;;5016552;28;20067;-84
2021/09/25 09:36:19;;;;;;;3.28;1.40;;;27.70;92.70;;;;;;5033981;28;20060;-85
2021/09/25 09:39:17;;;;;;;6.90;2.10;;;30.00;89.20;;;;;;5016581;28;20056;-85
2021/09/25 09:41:52;;;;;;;3.25;1.67;;;31.10;75.10;;;;;;5015660;28;20136;-86
2021/09/25 09:44:24;;;;;;;4.50;1.15;;;31.50;71.80;;;;;;5016455;28;20050;-85
2021/09/25 09:47:03;;;;;;;2.25;0.98;;;32.90;70.70;;;;;;5016390;28;20049;-84
2021/09/25 09:49:41;;;;;;;4.25;1.38;;;33.70;66.00;;;;;;5033455;28;20045;-84
2021/09/25 09:52:10;;;;;;;0.65;0.65;;;33.80;65.30;;;;;;5016280;28;20490;-85
2021/09/25 09:54:42;;;;;;;1.00;0.82;;;34.20;61.90;;;;;;5033477;28;20053;-85
2021/09/25 09:57:18;;;;;;;2.83;0.80;;;35.30;60.40;;;;;;5016091;28;20049;-84
2021/09/25 09:59:48;;;;;;;3.10;0.90;;;36.00;59.30;;;;;;5033576;28;20049;-84
2021/09/25 10:02:15;;;;;;;1.63;0.70;;;38.10;56.00;;;;;;5016475;28;20091;-84
2021/09/25 10:04:43;;;;;;;0.93;0.88;;;39.40;54.60;;;;;;5016246;28;20107;-85
2021/09/25 10:07:10;;;;;;;0.77;0.75;;;38.30;51.70;;;;;;5016153;28;20045;-85
2021/09/25 10:09:39;;;;;;;0.80;0.80;;;34.90;55.00;;;;;;5016008;28;20052;-85
2021/09/25 10:12:16;;;;;;;3.95;1.00;;;33.30;58.40;;;;;;4994159;28;20047;-84
2021/09/25 10:14:48;;;;;;;2.65;0.95;;;31.50;62.30;;;;;;4992418;28;20140;-84
2021/09/25 10:17:16;;;;;;;2.88;1.10;;;31.60;61.10;;;;;;4992557;28;20557;-84
2021/09/25 10:19:44;;;;;;;1.10;1.10;;;30.80;64.10;;;;;;4992653;28;20052;-84
2021/09/25 10:22:21;;;;;;;1.15;0.90;;;31.30;62.30;;;;;;4985924;28;20101;-84
2021/09/25 10:24:54;;;;;;;2.17;0.90;;;32.10;63.60;;;;;;4974288;28;20050;-84
2021/09/25 10:27:22;;;;;;;4.78;1.20;;;34.00;59.90;;;;;;4973245;28;20097;-84
2021/09/25 10:29:51;;;;;;;1.48;1.15;;;33.70;59.00;;;;;;4973959;28;20062;-83
2021/09/25 10:32:24;;;;;;;1.13;0.90;;;33.70;59.70;;;;;;4975769;28;20062;-85
2021/09/25 10:35:18;;;;;;;0.80;0.80;;;35.20;58.70;;;;;;4992765;28;20031;-85
2021/09/25 10:37:48;;;;;;;1.20;1.10;;;35.20;57.40;;;;;;4976939;28;20054;-85
2021/09/25 10:40:38;;;;;;;1.33;0.80;;;35.70;56.90;;;;;;4974144;28;20495;-84
2021/09/25 10:43:19;;;;;;;0.88;0.88;;;34.90;56.40;;;;;;4973642;28;20105;-84
2021/09/25 10:45:55;;;;;;;0.85;0.85;;;33.90;57.40;;;;;;4973001;28;20130;-84
2021/09/25 10:48:22;;;;;;;4.70;1.35;;;32.50;59.30;;;;;;4973266;28;20393;-85
2021/09/25 10:50:59;;;;;;;5.47;1.20;;;32.60;60.90;;;;;;4973164;28;20105;-84
2021/09/25 10:53:36;;;;;;;2.35;1.00;;;32.90;59.70;;;;;;4974375;28;20047;-84
2021/09/25 10:56:19;;;;;;;2.15;1.35;;;32.70;60.40;;;;;;4973449;28;20059;-83
2021/09/25 10:59:06;;;;;;;3.05;1.05;;;32.60;60.30;;;;;;4973235;28;20560;-83
2021/09/25 11:01:37;;;;;;;1.40;1.08;;;32.20;60.40;;;;;;4973039;28;20051;-84
2021/09/25 11:04:08;;;;;;;6.43;2.13;;;33.10;59.50;;;;;;4973938;28;20054;-85
2021/09/25 11:06:54;;;;;;;2.42;1.58;;;32.20;58.40;;;;;;4973319;28;20049;-84
2021/09/25 11:09:30;;;;;;;3.15;1.10;;;31.00;61.80;;;;;;4972945;28;20047;-84
2021/09/25 11:12:14;;;;;;;2.90;1.33;;;30.20;63.40;;;;;;4991818;28;20059;-84
2021/09/25 11:14:46;;;;;;;1.33;1.23;;;29.50;65.30;;;;;;4992051;28;20107;-84
2021/09/25 11:17:18;;;;;;;1.98;1.00;;;29.30;66.00;;;;;;4991599;28;20142;-85
2021/09/25 11:20:01;;;;;;;1.00;0.90;;;29.00;65.90;;;;;;4992151;28;20097;-84
2021/09/25 11:22:34;;;;;;;9.50;2.08;;;28.70;67.40;;;;;;4992126;28;20081;-84
2021/09/25 11:25:06;;;;;;;4.40;1.60;;;27.90;70.10;;;;;;4991783;28;20046;-84
2021/09/25 11:27:36;;;;;;;2.00;1.20;;;28.30;70.20;;;;;;4991694;28;20388;-84
2021/09/25 11:30:10;;;;;;;4.50;1.88;;;28.10;72.20;;;;;;4992137;28;20141;-84
2021/09/25 11:32:44;;;;;;;1.50;1.00;;;29.00;70.80;;;;;;4992038;28;20050;-85
2021/09/25 11:35:21;;;;;;;3.05;1.10;;;29.70;68.40;;;;;;4992975;28;20059;-85
2021/09/25 11:37:58;;;;;;;1.05;1.00;;;30.90;64.70;;;;;;4995478;28;20057;-84
2021/09/25 11:40:31;;;;;;;1.00;0.95;;;31.20;62.30;;;;;;4994588;28;20047;-85
2021/09/25 11:43:00;;;;;;;0.95;0.95;;;31.80;63.50;;;;;;4995597;28;20137;-84
2021/09/25 11:45:30;;;;;;;2.35;0.95;;;32.10;60.60;;;;;;4995197;28;20129;-85
2021/09/25 11:47:57;;;;;;;1.45;1.17;;;31.50;63.50;;;;;;4995604;28;20043;-84
2021/09/25 11:50:27;;;;;;;2.40;1.00;;;30.80;63.10;;;;;;4995723;28;20056;-85
2021/09/25 11:53:03;;;;;;;1.48;1.13;;;30.00;64.90;;;;;;5007460;28;20065;-84
2021/09/25 11:55:31;;;;;;;1.92;1.25;;;29.50;66.20;;;;;;5002766;28;20062;-83
2021/09/25 11:58:06;;;;;;;1.80;1.10;;;28.60;68.70;;;;;;4995400;28;20046;-85
2021/09/25 12:00:35;;;;;;;2.35;0.98;;;27.80;71.00;;;;;;4995481;28;20607;-84
2021/09/25 12:03:08;;;;;;;1.20;1.10;;;27.70;71.30;;;;;;4995158;28;20495;-84
2021/09/25 12:05:41;;;;;;;1.35;0.80;;;27.60;72.80;;;;;;4995188;28;20057;-84
2021/09/25 12:08:13;;;;;;;1.17;1.08;;;27.60;72.30;;;;;;4995141;28;20129;-83
2021/09/25 12:10:43;;;;;;;3.42;1.30;;;27.50;71.90;;;;;;4994791;28;20503;-85
2021/09/25 12:13:24;;;;;;;1.40;0.98;;;27.50;72.10;;;;;;4995283;28;20487;-84
2021/09/25 12:16:10;;;;;;;1.40;1.30;;;27.30;72.70;;;;;;4994617;28;20050;-84
2021/09/25 12:18:42;;;;;;;3.05;1.30;;;27.10;75.50;;;;;;4994941;28;20236;-84
2021/09/25 12:21:20;;;;;;;1.73;0.88;;;26.70;74.80;;;;;;4994889;28;20050;-84
2021/09/25 12:23:55;;;;;;;2.10;1.48;;;26.50;74.90;;;;;;4995730;28;20061;-84
2021/09/25 12:26:27;;;;;;;5.05;1.50;;;26.20;77.80;;;;;;4994192;28;20538;-85
2021/09/25 12:28:59;;;;;;;2.05;1.20;;;26.10;78.80;;;;;;4994610;28;20065;-84
2021/09/25 12:31:27;;;;;;;4.15;1.10;;;25.90;79.40;;;;;;4994846;28;20142;-84
2021/09/25 12:33:56;;;;;;;4.97;2.05;;;25.70;80.40;;;;;;4994617;28;20124;-85
2021/09/25 12:36:32;;;;;;;3.47;1.83;;;25.30;79.00;;;;;;4994728;28;20050;-85
2021/09/25 12:39:03;;;;;;;2.85;1.60;;;25.10;81.70;;;;;;4994551;28;20050;-85
2021/09/25 12:41:30;;;;;;;17.58;2.13;;;24.80;82.50;;;;;;4995543;28;20096;-84
2021/09/25 12:44:00;;;;;;;3.10;1.40;;;24.80;86.60;;;;;;4994459;28;20570;-85
2021/09/25 12:46:33;;;;;;;1.52;1.42;;;24.60;87.50;;;;;;4994031;28;20050;-87
2021/09/25 12:49:02;;;;;;;;;;;24.40;88.80;;;;;;4994812;28;20388;-86
2021/09/25 12:51:35;;;;;;;3.85;1.17;;;24.20;87.10;;;;;;4994080;28;19928;-86
2021/09/25 12:54:11;;;;;;;11.00;3.35;;;24.20;86.40;;;;;;4994309;28;20054;-84